Data for 07/23/2014

Time Sea-Level Adjusted Pressure Absolute Pressure Temperature Relative Humidity Dew Point   
(mb) (inHg) (mb) (inHg) (C) (F) (%) (C) (F)
00:05 1024 30.24 853 25.19 18.3 64.9 59 10.2 50.4
00:10 1024 30.24 853 25.19 18.3 65 59 10.2 50.3
00:15 1024 30.24 853 25.19 18.3 64.9 59 10.2 50.4
00:20 1024 30.24 853 25.19 18.3 64.9 60 10.3 50.6
00:25 1024 30.24 853 25.19 18.1 64.6 60 10.3 50.6
00:30 1023 30.21 853 25.19 18 64.5 60 10.3 50.6
00:35 1023 30.21 852 25.16 18 64.5 59 10.1 50.2
00:40 1023 30.21 852 25.16 18 64.5 60 10.2 50.3
00:45 1023 30.21 852 25.16 18.1 64.5 60 10.3 50.5
00:50 1023 30.21 852 25.16 18 64.4 59 10.1 50.2
00:55 1023 30.21 852 25.16 18 64.3 60 10.2 50.4
01:00 1023 30.21 852 25.16 17.9 64.2 60 10.2 50.4
01:05 1023 30.21 852 25.16 17.9 64.3 60 10.1 50.2
01:10 1023 30.21 852 25.16 18 64.4 59 10 50
01:15 1023 30.21 852 25.16 17.9 64.3 60 10.1 50.2
01:20 1023 30.21 852 25.16 17.9 64.2 60 10 50
01:25 1023 30.21 852 25.16 18 64.3 59 9.9 49.8
01:30 1023 30.21 852 25.16 18 64.4 59 9.9 49.8
01:35 1023 30.21 852 25.16 18 64.5 58 9.7 49.5
01:40 1023 30.21 852 25.16 18.1 64.5 58 9.8 49.7
01:45 1023 30.21 852 25.16 18 64.4 58 9.8 49.7
01:50 1023 30.21 852 25.16 18.1 64.5 57 9.7 49.4
01:55 1023 30.21 852 25.16 18.1 64.5 58 9.8 49.6
02:00 1023 30.21 852 25.16 18 64.5 57 9.6 49.2
02:05 1023 30.21 852 25.16 18.1 64.6 56 9.4 48.9
02:10 1023 30.21 852 25.16 18.2 64.7 56 9.4 49
02:15 1022 30.18 852 25.16 18.1 64.6 56 9.3 48.7
02:20 1023 30.21 852 25.16 18.1 64.5 57 9.4 49
02:25 1023 30.21 852 25.16 18 64.4 56 9.3 48.7
02:30 1023 30.21 852 25.16 18.1 64.6 56 9.3 48.7
02:35 1023 30.21 852 25.16 18 64.4 57 9.4 48.9
02:40 1023 30.21 852 25.16 17.9 64.2 57 9.3 48.7
02:45 1023 30.21 852 25.16 17.8 64.1 57 9.3 48.7
02:50 1023 30.21 852 25.16 17.8 64 56 9.1 48.3
02:55 1023 30.21 852 25.16 17.8 64.1 56 8.9 48.1
03:00 1023 30.21 852 25.16 18 64.3 54 8.6 47.4
03:05 1022 30.18 852 25.16 18.1 64.6 55 8.9 48
03:10 1022 30.18 852 25.16 18 64.4 54 8.8 47.8
03:15 1022 30.18 852 25.16 18 64.4 55 8.8 47.9
03:20 1022 30.18 852 25.16 18 64.3 54 8.7 47.6
03:25 1022 30.18 852 25.16 17.9 64.2 55 8.9 47.9
03:30 1022 30.18 852 25.16 17.8 64.1 55 8.7 47.7
03:35 1022 30.18 851 25.13 17.8 64 56 8.9 48
03:40 1022 30.18 851 25.13 17.7 63.9 55 8.8 47.8
03:45 1022 30.18 851 25.13 17.7 63.9 56 8.9 48.1
03:50 1022 30.18 851 25.13 17.6 63.6 57 9 48.3
03:55 1022 30.18 851 25.13 17.4 63.3 57 8.9 48.1
04:00 1022 30.18 851 25.13 17.5 63.5 56 8.8 47.8
04:05 1022 30.18 851 25.13 17.5 63.6 56 8.7 47.7
04:10 1022 30.18 851 25.13 17.5 63.5 56 8.7 47.7
04:15 1022 30.18 852 25.16 17.6 63.7 56 8.8 47.9
04:20 1023 30.21 852 25.16 17.7 63.8 55 8.6 47.5
04:25 1023 30.21 852 25.16 17.9 64.1 54 8.6 47.4
04:30 1024 30.24 853 25.19 18 64.4 55 8.8 47.9
04:35 1024 30.24 853 25.19 17.5 63.5 61 10 50
04:40 1024 30.24 853 25.19 16.2 61.1 66 10 50
04:45 1024 30.24 854 25.22 15.3 59.5 70 9.9 49.8
04:50 1024 30.24 854 25.22 14.5 58.2 73 9.8 49.7
04:55 1024 30.24 854 25.22 14.2 57.6 73 9.6 49.2
05:00 1024 30.24 853 25.19 14.6 58.3 70 9.3 48.7
05:05 1024 30.24 853 25.19 15.3 59.6 67 9.3 48.8
05:10 1024 30.24 854 25.22 15.7 60.2 66 9.4 48.9
05:15 1024 30.24 853 25.19 15.8 60.5 66 9.4 49
05:20 1024 30.24 853 25.19 15.8 60.4 66 9.5 49.2
05:25 1024 30.24 854 25.22 15.5 59.9 69 9.9 49.7
05:30 1024 30.24 853 25.19 15.1 59.2 69 9.6 49.3
05:35 1024 30.24 853 25.19 15.2 59.4 68 9.5 49
05:40 1024 30.24 853 25.19 15.4 59.6 69 9.7 49.4
05:45 1024 30.24 853 25.19 15.3 59.5 68 9.6 49.2
05:50 1024 30.24 853 25.19 15.5 59.9 68 9.6 49.4
05:55 1024 30.24 853 25.19 15.6 60.1 67 9.6 49.2
06:00 1024 30.24 853 25.19 15.7 60.2 67 9.7 49.4
06:05 1024 30.24 853 25.19 15.8 60.4 67 9.7 49.5
06:10 1024 30.24 853 25.19 15.8 60.4 67 9.7 49.5
06:15 1024 30.24 853 25.19 15.9 60.6 67 9.8 49.6
06:20 1024 30.24 853 25.19 16 60.7 67 9.9 49.9
06:25 1024 30.24 853 25.19 16.1 61 67 10.1 50.1
06:30 1024 30.24 853 25.19 16.1 60.9 68 10.3 50.5
06:35 1024 30.24 853 25.19 16.1 60.9 67 10 50
06:40 1024 30.24 853 25.19 15.9 60.7 68 10.1 50.1
06:45 1024 30.24 854 25.22 15.7 60.3 68 9.9 49.9
06:50 1024 30.24 854 25.22 15.8 60.4 68 10 50
06:55 1025 30.27 854 25.22 16.1 61 67 10 49.9
07:00 1024 30.24 854 25.22 16.5 61.8 64 9.9 49.8
07:05 1025 30.27 854 25.22 16.9 62.4 64 10.2 50.3
07:10 1025 30.27 854 25.22 17.6 63.7 62 10.4 50.8
07:15 1025 30.27 854 25.22 18.3 64.9 60 10.5 51
07:20 1025 30.27 854 25.22 18.8 65.8 59 10.6 51.1
07:25 1025 30.27 854 25.22 19 66.2 58 10.8 51.4
07:30 1025 30.27 854 25.22 18.8 65.8 58 10.4 50.8
07:35 1025 30.27 854 25.22 18.7 65.7 57 10.2 50.3
07:40 1025 30.27 854 25.22 19.2 66.5 54 9.9 49.8
07:45 1025 30.27 854 25.22 20.1 68.1 50 9.5 49.2
07:50 1025 30.27 854 25.22 20.2 68.4 49 9.4 49
07:55 1025 30.27 854 25.22 20.2 68.4 49 9.4 49
08:00 1025 30.27 854 25.22 20.3 68.6 50 9.7 49.4
08:05 1025 30.27 854 25.22 20.3 68.5 51 9.9 49.8
08:10 1025 30.27 854 25.22 20.5 68.9 50 9.8 49.7
08:15 1025 30.27 854 25.22 20.8 69.5 50 10.1 50.3
08:20 1025 30.27 854 25.22 20.7 69.3 49 9.8 49.7
08:25 1025 30.27 854 25.22 20.9 69.6 49 9.9 49.7
08:30 1025 30.27 854 25.22 21.1 70 48 9.7 49.5
08:35 1025 30.27 854 25.22 21.1 70.1 48 9.8 49.6
08:40 1025 30.27 854 25.22 21.3 70.4 47 9.7 49.4
08:45 1025 30.27 854 25.22 21.6 70.9 47 10.1 50.2
08:50 1025 30.27 854 25.22 21.7 71.1 47 10.1 50.2
08:55 1024 30.24 854 25.22 21.4 70.5 49 10.4 50.7
09:00 1024 30.24 854 25.22 21.2 70.1 48 10 50
09:05 1024 30.24 853 25.19 21.2 70.1 51 10.6 51.2
09:10 1024 30.24 853 25.19 21.2 70.1 50 10.5 51
09:15 1024 30.24 853 25.19 20.5 68.9 51 10.2 50.4
09:20 1024 30.24 853 25.19 20.8 69.4 50 10.2 50.3
09:25 1024 30.24 853 25.19 21.3 70.3 49 10.2 50.4
09:30 1024 30.24 853 25.19 20.8 69.4 49 9.9 49.8
09:35 1024 30.24 853 25.19 20.8 69.4 49 9.9 49.9
09:40 1024 30.24 853 25.19 21.1 70 48 9.7 49.5
09:45 1024 30.24 853 25.19 21.6 71 48 10.2 50.4
09:50 1024 30.24 853 25.19 21.7 71.1 45 9.6 49.3
09:55 1024 30.24 853 25.19 22.4 72.2 48 11 51.9
10:00 1023 30.21 853 25.19 21.8 71.2 48 10.6 51
10:05 1023 30.21 853 25.19 21.8 71.3 46 10 50
10:10 1023 30.21 853 25.19 22.5 72.6 46 10.7 51.2
10:15 1023 30.21 852 25.16 22.3 72.2 43 9.3 48.7
10:20 1023 30.21 852 25.16 23.7 74.7 42 10.2 50.4
10:25 1023 30.21 852 25.16 24.1 75.5 39 9.5 49.1
10:30 1023 30.21 852 25.16 24.1 75.4 39 9.5 49.1
10:35 1023 30.21 852 25.16 23.9 75 40 9.5 49.2
10:40 1023 30.21 852 25.16 24 75.1 40 9.7 49.5
10:45 1023 30.21 852 25.16 24.4 75.8 38 9.4 48.9
10:50 1023 30.21 852 25.16 24.8 76.7 37 9.3 48.7
10:55 1023 30.21 852 25.16 24.4 76 38 9.4 48.9
11:00 1023 30.21 852 25.16 24.9 76.8 38 9.7 49.4
11:05 1023 30.21 852 25.16 24.7 76.4 36 8.9 48
11:10 1023 30.21 852 25.16 25.3 77.5 34 8.7 47.6
11:15 1023 30.21 852 25.16 25.5 77.9 34 8.6 47.5
11:20 1023 30.21 852 25.16 25.9 78.7 33 8.8 47.9
11:25 1023 30.21 852 25.16 26.2 79.2 32 8.4 47.2
11:30 1023 30.21 852 25.16 26.1 79 32 8.4 47.1
11:35 1023 30.21 852 25.16 26.1 79.1 32 8.6 47.5
11:40 1023 30.21 852 25.16 26.5 79.6 30 7.8 46
11:45 1023 30.21 852 25.16 26.9 80.3 30 8.2 46.7
11:50 1023 30.21 852 25.16 25.9 78.6 32 8.3 47
11:55 1023 30.21 852 25.16 25.3 77.6 34 8.7 47.6
12:00 1022 30.18 852 25.16 24.9 76.9 35 8.6 47.5
12:05 1022 30.18 852 25.16 25.1 77.2 35 8.7 47.7
12:10 1022 30.18 852 25.16 26.1 79.1 33 8.7 47.7
12:15 1022 30.18 852 25.16 26.3 79.3 32 8.6 47.5
12:20 1022 30.18 851 25.13 26.5 79.8 32 8.9 48
12:25 1022 30.18 851 25.13 26.4 79.6 33 8.9 48
12:30 1022 30.18 851 25.13 27.3 81.1 31 9 48.2
12:35 1022 30.18 851 25.13 27.9 82.3 29 8.7 47.6
12:40 1022 30.18 851 25.13 28.3 82.9 31 9.7 49.4
12:45 1022 30.18 851 25.13 28.8 83.8 28 8.7 47.7
12:50 1022 30.18 851 25.13 28.7 83.6 30 9.6 49.3
12:55 1022 30.18 851 25.13 28.7 83.6 29 9.1 48.4
13:00 1022 30.18 851 25.13 28.1 82.6 30 9.2 48.5
13:05 1022 30.18 851 25.13 28.7 83.6 29 9.3 48.8
13:10 1022 30.18 851 25.13 28.6 83.5 29 9 48.2
13:15 1022 30.18 851 25.13 28.6 83.4 29 9.3 48.7
13:20 1022 30.18 851 25.13 28.5 83.2 28 8.7 47.7
13:25 1022 30.18 851 25.13 28.1 82.6 29 8.6 47.5
13:30 1021 30.15 851 25.13 27.8 82 31 9.2 48.6
13:35 1021 30.15 851 25.13 27.6 81.8 30 8.9 48.1
13:40 1021 30.15 851 25.13 28 82.3 28 8 46.4
13:45 1021 30.15 851 25.13 28.5 83.3 28 8.5 47.2
13:50 1021 30.15 850 25.1 29 84.2 26 8 46.4
13:55 1021 30.15 850 25.1 29.6 85.2 26 8.3 46.9
14:00 1021 30.15 850 25.1 29.3 84.7 27 8.9 48
14:05 1021 30.15 850 25.1 28.2 82.7 28 8.3 47
14:10 1021 30.15 850 25.1 28.3 83 27 7.9 46.3
14:15 1021 30.15 850 25.1 29.3 84.7 27 8.4 47.2
14:20 1021 30.15 850 25.1 29.7 85.4 26 8.2 46.8
14:25 1021 30.15 850 25.1 29.8 85.7 25 8.2 46.8
14:30 1021 30.15 850 25.1 29.8 85.6 25 8.2 46.7
14:35 1021 30.15 850 25.1 29.1 84.4 25 7.7 45.8
14:40 1020 30.12 850 25.1 29.1 84.4 24 6.8 44.3
14:45 1020 30.12 850 25.1 30.2 86.3 24 7.6 45.6
14:50 1020 30.12 850 25.1 30.6 87 24 8 46.5
14:55 1020 30.12 849 25.07 30.9 87.5 24 8.1 46.6
15:00 1020 30.12 849 25.07 31 87.9 24 8.6 47.5
15:05 1020 30.12 849 25.07 31.3 88.4 24 8.7 47.6
15:10 1020 30.12 849 25.07 31.3 88.4 24 8.7 47.7
15:15 1020 30.12 849 25.07 31.2 88.1 24 8.6 47.5
15:20 1020 30.12 849 25.07 30.6 87.1 24 7.9 46.2
15:25 1020 30.12 849 25.07 30.7 87.2 22 6.7 44
15:30 1020 30.12 849 25.07 31.7 89.1 21 7.3 45.1
15:35 1019 30.09 849 25.07 31.7 89 23 8.6 47.5
15:40 1019 30.09 849 25.07 30.3 86.6 25 8.2 46.8
15:45 1019 30.09 849 25.07 30.1 86.1 24 7.7 45.8
15:50 1019 30.09 849 25.07 30.4 86.7 24 7.8 46
15:55 1019 30.09 848 25.04 30.9 87.6 22 7.2 44.9
16:00 1019 30.09 848 25.04 30.5 86.9 23 7.3 45.1
16:05 1019 30.09 848 25.04 30.8 87.4 22 6.7 44
16:10 1019 30.09 848 25.04 30.3 86.6 23 7 44.6
16:15 1019 30.09 848 25.04 30.8 87.4 21 6.4 43.6
16:20 1019 30.09 848 25.04 30.7 87.2 22 6.9 44.5
16:25 1019 30.09 848 25.04 29.8 85.6 22 6.1 43
16:30 1019 30.09 848 25.04 30.2 86.4 22 6.4 43.5
16:35 1019 30.09 848 25.04 31.1 88.1 21 6.5 43.7
16:40 1019 30.09 848 25.04 30.3 86.6 22 6.4 43.6
16:45 1018 30.06 848 25.04 30.2 86.3 23 7 44.6
16:50 1018 30.06 848 25.04 29.9 85.9 22 6.5 43.7
16:55 1018 30.06 848 25.04 30.2 86.4 22 6.4 43.5
17:00 1018 30.06 847 25.01 29.9 85.7 22 6.1 43
17:05 1018 30.06 847 25.01 29.8 85.7 21 5.2 41.3
17:10 1018 30.06 847 25.01 29.6 85.3 21 5.5 41.8
17:15 1018 30.06 847 25.01 30 85.9 21 5.3 41.6
17:20 1018 30.06 847 25.01 30.6 87 19 5 41
17:25 1018 30.06 847 25.01 31 87.7 21 6.3 43.4
17:30 1018 30.06 847 25.01 31.4 88.6 20 5.9 42.6
17:35 1018 30.06 847 25.01 31.6 88.8 20 6.1 42.9
17:40 1018 30.06 847 25.01 31.9 89.3 19 6 42.8
17:45 1018 30.06 847 25.01 31.9 89.4 18 5 41.1
17:50 1018 30.06 847 25.01 31.7 89.1 19 5.4 41.7
17:55 1017 30.03 847 25.01 30.6 87.1 21 5.9 42.6
18:00 1017 30.03 847 25.01 30.7 87.2 20 5.4 41.7
18:05 1017 30.03 846 24.98 30.4 86.8 20 5.5 41.9
18:10 1017 30.03 846 24.98 30.1 86.2 22 6.3 43.3
18:15 1017 30.03 846 24.98 30.2 86.3 22 6.7 44.1
18:20 1017 30.03 846 24.98 29.9 85.8 21 5.5 41.9
18:25 1017 30.03 846 24.98 29.7 85.4 22 6.2 43.2
18:30 1017 30.03 846 24.98 29.7 85.5 21 5.1 41.2
18:35 1017 30.03 846 24.98 29.7 85.4 21 5.5 41.8
18:40 1017 30.03 846 24.98 29.7 85.4 21 5.1 41.2
18:45 1017 30.03 846 24.98 29.5 85.1 23 6.5 43.6
18:50 1017 30.03 846 24.98 29.3 84.8 24 6.9 44.3
18:55 1017 30.03 846 24.98 29.3 84.8 25 7.8 46.1
19:00 1017 30.03 846 24.98 29.2 84.6 24 6.7 44
19:05 1017 30.03 846 24.98 29 84.3 25 7.5 45.4
19:10 1017 30.03 846 24.98 28.8 83.8 29 9.1 48.4
19:15 1017 30.03 846 24.98 28.5 83.3 27 7.9 46.3
19:20 1016 30 846 24.98 28.4 83.1 27 8.1 46.6
19:25 1016 30 846 24.98 28.2 82.8 28 8.4 47.2
19:30 1017 30.03 846 24.98 28 82.3 34 10.9 51.6
19:35 1016 30 846 24.98 27.5 81.6 39 12.8 55
19:40 1016 30 846 24.98 27.3 81.2 28 7.3 45.1
19:45 1016 30 846 24.98 27.8 82.1 31 9.2 48.6
19:50 1016 30 846 24.98 27.7 81.9 30 9 48.2
19:55 1016 30 846 24.98 27.7 81.9 26 6.8 44.3
20:00 1016 30 846 24.98 27.8 82 30 9 48.2
20:05 1016 30 846 24.98 26.6 79.8 28 6.9 44.5
20:10 1016 30 846 24.98 26.4 79.6 19 1.4 34.6
20:15 1016 30 846 24.98 27.2 81 27 6.7 44
20:20 1017 30.03 846 24.98 26.4 79.4 26 5.8 42.5
20:25 1017 30.03 846 24.98 25.7 78.3 25 4.3 39.8
20:30 1017 30.03 846 24.98 25.6 78.1 27 5.5 42
20:35 1017 30.03 846 24.98 25.8 78.4 17 -0.8 30.6
20:40 1017 30.03 846 24.98 25.8 78.4 26 5 41
20:45 1017 30.03 846 24.98 25.1 77.3 24 3.1 37.7
20:50 1017 30.03 846 24.98 24.8 76.6 25 3.7 38.7
20:55 1017 30.03 846 24.98 24.8 76.6 19 -0.4 31.3
21:00 1017 30.03 846 24.98 25.3 77.5 23 2.6 36.7
21:05 1017 30.03 846 24.98 24.8 76.6 20 0.3 32.5
21:10 1016 30 846 24.98 24.4 76 21 0.6 33.1
21:15 1016 30 846 24.98 24 75.2 23 1.9 35.3
21:20 1016 30 846 24.98 23.7 74.6 22 1 33.7
21:25 1016 30 846 24.98 23.8 74.8 23 1.4 34.5
21:30 1016 30 846 24.98 23.8 74.8 20 -0.1 31.8
21:35 1016 30 846 24.98 23.8 74.8 24 2.1 35.7
21:40 1016 30 845 24.95 23.4 74 23 1 33.8
21:45 1016 30 845 24.95 23.2 73.7 23 0.9 33.5
21:50 1016 30 845 24.95 23.2 73.7 21 0.2 32.3
21:55 1016 30 845 24.95 23.1 73.5 21 -0.1 31.8
22:00 1016 30 845 24.95 23 73.5 22 0.3 32.5
22:05 1016 30 845 24.95 22.6 72.7 24 1.5 34.7
22:10 1016 30 845 24.95 22 71.5 24 0.5 33
22:15 1016 30 845 24.95 22 71.5 22 -0.4 31.3
22:20 1016 30 845 24.95 22.5 72.4 21 -0.5 31.2
22:25 1016 30 845 24.95 22.3 72.2 25 1.4 34.4
22:30 1016 30 845 24.95 21.7 71.1 26 1.6 34.9
22:35 1016 30 845 24.95 21.5 70.6 27 1.7 35.1
22:40 1016 30 845 24.95 21.4 70.6 23 -0.3 31.5
22:45 1016 30 845 24.95 22.3 72.1 22 -0.4 31.3
22:50 1016 30 845 24.95 22.2 72 23 0.2 32.3
22:55 1016 30 845 24.95 22.1 71.8 25 1.1 34
23:00 1016 30 845 24.95 21.8 71.3 22 -0.6 30.8
23:05 1016 30 845 24.95 21.5 70.8 25 0.8 33.4
23:10 1016 30 845 24.95 21.2 70.2 23 -0.8 30.6
23:15 1016 30 845 24.95 21.9 71.4 23 -0.1 31.9
23:20 1016 30 845 24.95 22.1 71.8 22 -0.1 31.7
23:25 1016 30 845 24.95 21.9 71.4 26 1.5 34.6
23:30 1016 30 845 24.95 21.3 70.3 30 3 37.5
23:35 1016 30 845 24.95 19.7 67.4 32 2.8 37
23:40 1016 30 845 24.95 18.7 65.6 35 2.9 37.3
23:45 1016 30 845 24.95 17.9 64.2 36 2.6 36.7
23:50 1016 30 845 24.95 18.1 64.5 33 1.7 35.1
23:55 1016 30 845 24.95 18.6 65.4 32 1.9 35.4
24:00 1016 30 845 24.95 18.8 65.8 33 2.4 36.3